createdAt,value
2018-05-10T00:01:59.563Z,16.07
2018-05-10T00:04:27.217Z,16.15
2018-05-10T00:06:54.763Z,17.02
2018-05-10T00:09:22.342Z,16.63
2018-05-10T00:11:49.870Z,14.60
2018-05-10T00:14:17.449Z,14.63
2018-05-10T00:16:45.021Z,14.57
2018-05-10T00:19:12.580Z,13.87
2018-05-10T00:21:40.203Z,14.17
2018-05-10T00:24:07.779Z,16.90
2018-05-10T00:26:35.351Z,15.57
2018-05-10T00:29:03.012Z,14.70
2018-05-10T00:31:30.536Z,16.03
2018-05-10T00:33:58.436Z,16.77
2018-05-10T00:36:25.997Z,18.95
2018-05-10T00:38:53.576Z,20.33
2018-05-10T00:41:21.116Z,19.53
2018-05-10T00:43:48.714Z,17.65
2018-05-10T00:46:16.249Z,17.55
2018-05-10T00:48:43.904Z,16.83
2018-05-10T00:51:11.493Z,21.90
2018-05-10T00:53:39.434Z,47.90
2018-05-10T00:56:06.990Z,49.00
2018-05-10T00:58:34.657Z,36.63
2018-05-10T01:01:02.207Z,25.37
2018-05-10T01:03:29.793Z,23.53
2018-05-10T01:05:57.369Z,22.42
2018-05-10T01:08:24.928Z,22.10
2018-05-10T01:10:52.504Z,21.55
2018-05-10T01:13:20.024Z,20.23
2018-05-10T01:15:47.576Z,19.85
2018-05-10T01:18:15.106Z,18.10
2018-05-10T01:20:42.705Z,21.80
2018-05-10T01:23:10.233Z,20.73
2018-05-10T01:25:37.834Z,22.70
2018-05-10T01:28:05.390Z,20.08
2018-05-10T01:30:32.965Z,20.47
2018-05-10T01:33:00.492Z,18.43
2018-05-10T01:35:39.908Z,19.63
2018-05-10T01:38:07.447Z,19.53
2018-05-10T01:40:35.025Z,19.10
2018-05-10T01:43:02.552Z,18.93
2018-05-10T01:45:30.129Z,19.93
2018-05-10T01:47:57.654Z,21.53
2018-05-10T01:50:25.211Z,21.33
2018-05-10T01:52:52.758Z,23.97
2018-05-10T01:55:20.363Z,21.63
2018-05-10T01:57:47.890Z,23.83
2018-05-10T02:00:15.567Z,22.70
2018-05-10T02:02:43.177Z,24.13
2018-05-10T02:05:10.770Z,20.30
2018-05-10T02:07:38.326Z,21.90
2018-05-10T02:10:06.069Z,22.43
2018-05-10T02:12:33.629Z,23.33
2018-05-10T02:15:01.205Z,21.53
2018-05-10T02:17:28.737Z,20.73
2018-05-10T02:19:56.333Z,19.40
2018-05-10T02:22:24.018Z,20.37
2018-05-10T02:24:51.591Z,21.47
2018-05-10T02:27:19.118Z,20.42
2018-05-10T02:29:46.742Z,21.15
2018-05-10T02:32:14.300Z,21.77
2018-05-10T02:34:41.950Z,23.13
2018-05-10T02:37:09.521Z,22.50
2018-05-10T02:39:37.139Z,27.37
2018-05-10T02:42:04.754Z,27.80
2018-05-10T02:44:32.307Z,32.40
2018-05-10T02:46:59.910Z,35.40
2018-05-10T02:49:27.461Z,35.00
2018-05-10T02:51:55.085Z,31.50
2018-05-10T02:54:22.644Z,32.90
2018-05-10T02:56:50.217Z,28.43
2018-05-10T02:59:17.748Z,26.70
2018-05-10T03:01:45.426Z,25.53
2018-05-10T03:04:12.978Z,25.33
2018-05-10T03:06:40.648Z,28.23
2018-05-10T03:09:08.204Z,28.40
2018-05-10T03:11:35.880Z,29.37
2018-05-10T03:14:03.482Z,32.60
2018-05-10T03:16:31.061Z,29.27
2018-05-10T03:18:58.586Z,27.67
2018-05-10T03:21:26.166Z,30.43
2018-05-10T03:23:53.768Z,33.13
2018-05-10T03:26:21.392Z,32.40
2018-05-10T03:28:48.922Z,31.15
2018-05-10T03:31:16.851Z,33.03
2018-05-10T03:33:44.374Z,33.07
2018-05-10T03:36:12.401Z,32.63
2018-05-10T03:38:39.958Z,34.23
2018-05-10T03:41:07.557Z,32.87
2018-05-10T03:43:35.109Z,34.20
2018-05-10T03:46:02.685Z,35.60
2018-05-10T03:48:30.212Z,35.13
2018-05-10T03:50:57.794Z,33.50
2018-05-10T03:53:25.414Z,32.85
2018-05-10T03:55:52.999Z,34.60
2018-05-10T03:58:20.626Z,34.45
2018-05-10T04:00:48.287Z,34.30
2018-05-10T04:03:51.379Z,35.93
2018-05-10T04:06:30.710Z,35.77
2018-05-10T04:09:10.233Z,36.78
2018-05-10T04:11:37.931Z,35.30
2018-05-10T04:14:05.486Z,36.03
2018-05-10T04:16:33.037Z,38.17
2018-05-10T04:19:00.597Z,36.57
2018-05-10T04:21:28.256Z,34.78
2018-05-10T04:23:55.817Z,34.43
2018-05-10T04:26:23.376Z,39.50
2018-05-10T04:28:51.026Z,34.53
2018-05-10T04:31:18.674Z,36.25
2018-05-10T04:33:46.262Z,35.90
2018-05-10T04:36:14.125Z,40.50
2018-05-10T04:38:41.803Z,37.90
2018-05-10T04:41:09.362Z,40.40
2018-05-10T04:43:36.967Z,40.80
2018-05-10T04:46:04.516Z,40.77
2018-05-10T04:48:32.069Z,38.33
2018-05-10T04:50:59.602Z,42.70
2018-05-10T04:53:27.176Z,45.07
2018-05-10T04:55:54.771Z,47.07
2018-05-10T04:58:22.377Z,47.17
2018-05-10T05:00:49.906Z,51.93
2018-05-10T05:03:17.646Z,47.38
2018-05-10T05:05:45.257Z,51.57
2018-05-10T05:08:13.514Z,55.28
2018-05-10T05:10:41.192Z,54.40
2018-05-10T05:13:08.853Z,55.17
2018-05-10T05:15:36.392Z,52.77
2018-05-10T05:18:03.970Z,53.67
2018-05-10T05:20:31.498Z,51.87
2018-05-10T05:22:59.077Z,49.97
2018-05-10T05:25:26.601Z,47.47
2018-05-10T05:27:54.156Z,47.17
2018-05-10T05:30:21.682Z,47.50
2018-05-10T05:32:49.274Z,44.20
2018-05-10T05:35:16.809Z,42.33
2018-05-10T05:37:44.382Z,44.40
2018-05-10T05:40:11.942Z,44.40
2018-05-10T05:42:39.515Z,43.17
2018-05-10T05:45:07.036Z,40.70
2018-05-10T05:47:34.620Z,41.63
2018-05-10T05:50:05.173Z,39.50
2018-05-10T05:52:34.724Z,41.73
2018-05-10T05:55:03.772Z,38.70
2018-05-10T05:57:31.258Z,40.17
2018-05-10T05:59:58.831Z,40.70
2018-05-10T06:02:26.495Z,40.33
2018-05-10T06:04:54.566Z,39.73
2018-05-10T06:07:22.091Z,39.70
2018-05-10T06:09:49.639Z,38.28
2018-05-10T06:12:17.171Z,38.73
2018-05-10T06:14:44.805Z,39.47
2018-05-10T06:17:12.773Z,39.97
2018-05-10T06:19:40.549Z,38.00
2018-05-10T06:22:08.202Z,37.00
2018-05-10T06:24:35.754Z,33.47
2018-05-10T06:27:03.318Z,36.80
2018-05-10T06:29:30.907Z,37.67
2018-05-10T06:31:58.541Z,35.47
2018-05-10T06:34:26.193Z,35.05
2018-05-10T06:36:53.714Z,33.83
2018-05-10T06:39:21.321Z,37.70
2018-05-10T06:41:48.845Z,37.37
2018-05-10T06:44:16.398Z,39.90
2018-05-10T06:46:44.032Z,37.40
2018-05-10T06:49:11.630Z,35.17
2018-05-10T06:51:39.178Z,36.17
2018-05-10T06:54:06.886Z,38.53
2018-05-10T06:56:34.443Z,36.63
2018-05-10T06:59:02.015Z,37.43
2018-05-10T07:01:29.562Z,38.87
2018-05-10T07:03:57.240Z,40.80
2018-05-10T07:06:24.770Z,41.83
2018-05-10T07:08:52.345Z,42.70
2018-05-10T07:11:19.869Z,45.20
2018-05-10T07:13:47.398Z,44.53
2018-05-10T07:16:16.700Z,45.83
2018-05-10T07:18:44.322Z,45.53
2018-05-10T07:21:11.985Z,43.40
2018-05-10T07:23:40.006Z,44.47
2018-05-10T07:26:07.561Z,42.10
2018-05-10T07:28:35.138Z,40.83
2018-05-10T07:31:02.714Z,40.37
2018-05-10T07:33:30.243Z,34.70
2018-05-10T07:35:57.857Z,34.07
2018-05-10T07:38:25.413Z,32.47
2018-05-10T07:40:52.977Z,30.12
2018-05-10T07:43:20.525Z,35.73
2018-05-10T07:45:48.078Z,33.80
2018-05-10T07:48:15.652Z,30.43
2018-05-10T07:50:43.258Z,30.20
2018-05-10T07:53:10.895Z,34.17
2018-05-10T07:55:38.437Z,34.43
2018-05-10T07:58:05.966Z,37.40
2018-05-10T08:00:33.858Z,44.78
2018-05-10T08:03:01.419Z,44.27
2018-05-10T08:05:29.121Z,44.90
2018-05-10T08:07:57.096Z,46.23
2018-05-10T08:10:24.814Z,48.30
2018-05-10T08:12:52.898Z,44.97
2018-05-10T08:15:21.153Z,46.22
2018-05-10T08:17:48.982Z,46.63
2018-05-10T08:20:16.916Z,42.78
2018-05-10T08:22:44.967Z,43.58
2018-05-10T08:25:12.564Z,47.03
2018-05-10T08:27:56.066Z,53.13
2018-05-10T08:30:23.941Z,53.80
2018-05-10T08:32:51.701Z,47.67
2018-05-10T08:35:19.342Z,41.70
2018-05-10T08:37:47.273Z,47.33
2018-05-10T08:40:16.047Z,52.28
2018-05-10T08:42:43.578Z,49.30
2018-05-10T08:45:11.207Z,48.03
2018-05-10T08:47:39.097Z,45.50
2018-05-10T08:50:06.687Z,50.73
2018-05-10T08:52:34.868Z,35.43
2018-05-10T08:55:02.567Z,29.33
2018-05-10T08:57:30.646Z,25.42
2018-05-10T08:59:58.238Z,24.53
2018-05-10T09:02:26.203Z,28.60
2018-05-10T09:04:54.479Z,32.73
2018-05-10T09:07:22.425Z,43.87
2018-05-10T09:09:50.747Z,42.97
2018-05-10T09:12:18.798Z,44.97
2018-05-10T09:14:50.159Z,44.70
2018-05-10T09:17:18.310Z,46.90
2018-05-10T09:19:47.060Z,41.47
2018-05-10T09:22:14.914Z,39.90
2018-05-10T09:24:43.035Z,34.07
2018-05-10T09:27:10.868Z,36.07
2018-05-10T09:29:39.244Z,32.33
2018-05-10T09:32:07.773Z,27.67
2018-05-10T09:34:35.426Z,25.27
2018-05-10T09:37:03.086Z,22.60
2018-05-10T09:39:31.002Z,23.00
2018-05-10T09:41:59.058Z,17.75
2018-05-10T09:44:26.649Z,18.83
2018-05-10T09:46:54.963Z,16.07
2018-05-10T09:49:22.489Z,14.07
2018-05-10T09:51:50.374Z,15.98
2018-05-10T09:54:17.970Z,13.62
2018-05-10T09:56:46.545Z,14.55
2018-05-10T09:59:15.410Z,14.43
2018-05-10T10:01:42.998Z,11.83
2018-05-10T10:04:10.756Z,11.70
2018-05-10T10:06:38.409Z,12.43
2018-05-10T10:09:05.967Z,15.60
2018-05-10T10:11:33.654Z,8.33
2018-05-10T10:14:01.295Z,8.20
2018-05-10T10:16:28.886Z,6.90
2018-05-10T10:18:56.616Z,7.43
2018-05-10T10:21:24.166Z,8.07
2018-05-10T10:23:51.736Z,6.07
2018-05-10T10:26:19.295Z,7.87
2018-05-10T10:28:49.474Z,6.67
2018-05-10T10:31:17.601Z,6.27
2018-05-10T10:33:45.146Z,4.17
2018-05-10T10:36:13.024Z,5.63
2018-05-10T10:38:41.458Z,5.37
2018-05-10T10:41:10.049Z,6.37
2018-05-10T10:43:38.455Z,6.67
2018-05-10T10:46:06.016Z,3.07
2018-05-10T10:48:34.396Z,4.50
2018-05-10T10:51:02.365Z,5.43
2018-05-10T10:53:30.030Z,5.50
2018-05-10T10:55:58.611Z,3.47
2018-05-10T10:58:27.249Z,4.60
2018-05-10T11:00:55.428Z,6.60
2018-05-10T11:03:23.629Z,7.62
2018-05-10T11:05:51.554Z,5.60
2018-05-10T11:08:20.234Z,3.87
2018-05-10T11:10:47.758Z,5.30
2018-05-10T11:13:15.480Z,5.32
2018-05-10T11:15:42.978Z,5.20
2018-05-10T11:18:10.620Z,6.17
2018-05-10T11:20:38.198Z,4.60
2018-05-10T11:23:05.749Z,6.23
2018-05-10T11:25:33.326Z,4.93
2018-05-10T11:28:00.876Z,5.10
2018-05-10T11:30:27.718Z,5.64
2018-05-10T11:35:29.195Z,6.30
2018-05-10T11:37:56.851Z,3.70
2018-05-10T11:40:24.385Z,3.95
2018-05-10T11:42:51.940Z,4.90
2018-05-10T11:45:19.539Z,5.87
2018-05-10T11:47:47.169Z,6.43
2018-05-10T11:50:14.717Z,7.70
2018-05-10T11:52:42.309Z,6.23
2018-05-10T11:55:09.868Z,6.87
2018-05-10T11:57:37.426Z,5.87
2018-05-10T12:00:04.953Z,8.17
2018-05-10T12:02:32.579Z,6.97
2018-05-10T12:05:00.110Z,5.80
2018-05-10T12:07:27.774Z,5.50
2018-05-10T12:09:55.315Z,6.63
2018-05-10T12:12:24.173Z,6.23
2018-05-10T12:14:52.392Z,5.37
2018-05-10T12:17:20.470Z,5.77
2018-05-10T12:19:48.169Z,5.27
2018-05-10T12:22:16.724Z,7.03
2018-05-10T12:24:44.783Z,4.70
2018-05-10T12:27:12.753Z,5.00
2018-05-10T12:29:40.497Z,4.93
2018-05-10T12:32:08.837Z,8.07
2018-05-10T12:34:36.387Z,5.10
2018-05-10T12:37:04.613Z,6.67
2018-05-10T12:39:32.221Z,4.00
2018-05-10T12:41:59.952Z,3.78
2018-05-10T12:44:27.946Z,3.97
2018-05-10T12:46:56.821Z,5.87
2018-05-10T12:49:24.475Z,5.87
2018-05-10T12:51:52.626Z,3.43
2018-05-10T12:54:20.929Z,5.60
2018-05-10T12:56:49.005Z,3.03
2018-05-10T12:59:16.967Z,3.53
2018-05-10T13:01:44.521Z,5.10
2018-05-10T13:04:12.607Z,6.13
2018-05-10T13:06:40.264Z,7.80
2018-05-10T13:09:07.840Z,3.33
2018-05-10T13:11:35.488Z,5.93
2018-05-10T13:14:03.243Z,3.37
2018-05-10T13:16:30.836Z,3.97
2018-05-10T13:18:58.527Z,3.83
2018-05-10T13:21:26.052Z,4.87
2018-05-10T13:23:54.096Z,5.43
2018-05-10T13:26:22.003Z,3.13
2018-05-10T13:28:50.003Z,5.23
2018-05-10T13:31:17.514Z,5.80
2018-05-10T13:33:45.289Z,6.30
2018-05-10T13:36:13.336Z,6.87
2018-05-10T13:38:41.215Z,2.77
2018-05-10T13:41:08.895Z,5.05
2018-05-10T13:43:36.798Z,4.00
2018-05-10T13:46:04.500Z,6.25
2018-05-10T13:48:32.354Z,5.77
2018-05-10T13:51:00.426Z,3.58
2018-05-10T13:53:28.110Z,4.37
2018-05-10T13:55:56.061Z,3.87
2018-05-10T13:58:24.260Z,6.50
2018-05-10T14:00:52.068Z,4.13
2018-05-10T14:03:19.665Z,3.23
2018-05-10T14:05:47.446Z,4.83
2018-05-10T14:08:16.491Z,5.37
2018-05-10T14:10:47.598Z,5.17
2018-05-10T14:13:15.723Z,3.33
2018-05-10T14:15:43.746Z,5.83
2018-05-10T14:18:12.428Z,2.77
2018-05-10T14:20:40.340Z,5.60
2018-05-10T14:23:07.883Z,4.90
2018-05-10T14:25:36.164Z,4.77
2018-05-10T14:28:03.854Z,3.40
2018-05-10T14:30:32.140Z,5.27
2018-05-10T14:32:59.692Z,7.53
2018-05-10T14:35:27.247Z,3.93
2018-05-10T14:37:54.807Z,2.80
2018-05-10T14:40:22.779Z,4.40
2018-05-10T14:42:50.406Z,3.43
2018-05-10T14:45:18.378Z,2.50
2018-05-10T14:47:45.929Z,3.77
2018-05-10T14:50:14.249Z,2.93
2018-05-10T14:55:23.833Z,2.63
2018-05-10T14:57:52.386Z,3.73
2018-05-10T15:00:19.967Z,3.20
2018-05-10T15:02:47.822Z,4.85
2018-05-10T15:05:15.770Z,3.33
2018-05-10T15:07:43.945Z,3.80
2018-05-10T15:10:12.122Z,5.40
2018-05-10T15:12:41.459Z,4.90
2018-05-10T15:15:09.296Z,1.97
2018-05-10T15:17:36.911Z,2.73
2018-05-10T15:20:04.836Z,3.43
2018-05-10T15:22:32.408Z,4.70
2018-05-10T15:25:00.018Z,5.03
2018-05-10T15:27:27.602Z,4.70
2018-05-10T15:29:55.243Z,4.60
2018-05-10T15:32:23.144Z,3.43
2018-05-10T15:34:51.970Z,3.53
2018-05-10T15:37:20.046Z,6.60
2018-05-10T15:39:47.961Z,4.45
2018-05-10T15:42:15.766Z,2.57
2018-05-10T15:44:43.857Z,2.93
2018-05-10T15:47:12.914Z,6.90
2018-05-10T15:49:43.779Z,3.80
2018-05-10T15:52:12.061Z,2.97
2018-05-10T15:54:39.611Z,5.00
2018-05-10T15:57:07.436Z,3.27
2018-05-10T15:59:35.300Z,5.70
2018-05-10T16:02:02.973Z,4.17
2018-05-10T16:04:31.313Z,3.03
2018-05-10T16:06:59.002Z,3.23
2018-05-10T16:09:27.080Z,6.40
2018-05-10T16:11:54.679Z,6.03
2018-05-10T16:14:22.295Z,2.60
2018-05-10T16:16:50.786Z,3.07
2018-05-10T16:19:18.387Z,4.10
2018-05-10T16:21:45.963Z,5.65
2018-05-10T16:24:14.068Z,5.07
2018-05-10T16:26:41.614Z,6.83
2018-05-10T16:29:09.198Z,5.90
2018-05-10T16:31:36.851Z,9.90
2018-05-10T16:34:04.513Z,6.85
2018-05-10T16:36:32.175Z,5.10
2018-05-10T16:38:59.837Z,3.33
2018-05-10T16:41:28.010Z,4.17
2018-05-10T16:43:55.569Z,2.78
2018-05-10T16:46:24.484Z,6.55
2018-05-10T16:48:52.428Z,4.03
2018-05-10T16:51:20.091Z,4.73
2018-05-10T16:53:48.221Z,4.35
2018-05-10T16:56:16.189Z,2.27
2018-05-10T16:58:43.725Z,4.73
2018-05-10T17:01:11.354Z,3.47
2018-05-10T17:03:42.022Z,2.50
2018-05-10T17:06:10.043Z,3.07
2018-05-10T17:08:38.153Z,4.00
2018-05-10T17:11:06.062Z,2.60
2018-05-10T17:13:33.760Z,2.90
2018-05-10T17:16:01.609Z,2.63
2018-05-10T17:18:29.320Z,3.83
2018-05-10T17:20:59.820Z,2.77
2018-05-10T17:23:30.903Z,2.12
2018-05-10T17:25:58.567Z,5.80
2018-05-10T17:28:27.297Z,2.58
2018-05-10T17:30:54.960Z,3.13
2018-05-10T17:33:22.449Z,4.53
2018-05-10T17:35:50.457Z,4.50
2018-05-10T17:38:19.227Z,2.33
2018-05-10T17:40:46.913Z,3.50
2018-05-10T17:43:14.518Z,5.80
2018-05-10T17:45:42.479Z,2.97
2018-05-10T17:48:10.431Z,5.13
2018-05-10T17:50:37.970Z,2.87
2018-05-10T17:53:06.270Z,1.50
2018-05-10T17:55:33.944Z,2.40
2018-05-10T17:58:01.605Z,2.33
2018-05-10T18:00:29.648Z,2.35
2018-05-10T18:02:57.207Z,3.25
2018-05-10T18:05:24.731Z,1.80
2018-05-10T18:07:53.381Z,2.50
2018-05-10T18:10:20.986Z,3.97
2018-05-10T18:12:48.605Z,2.03
2018-05-10T18:15:16.142Z,3.93
2018-05-10T18:17:44.565Z,1.90
2018-05-10T18:20:12.496Z,6.87
2018-05-10T18:22:40.119Z,3.00
2018-05-10T18:25:07.849Z,2.73
2018-05-10T18:27:36.474Z,1.80
2018-05-10T18:30:04.388Z,4.68
2018-05-10T18:32:32.058Z,2.70
2018-05-10T18:35:00.528Z,2.70
2018-05-10T18:37:28.191Z,2.17
2018-05-10T18:39:55.713Z,3.77
2018-05-10T18:42:23.266Z,2.17
2018-05-10T18:44:50.817Z,1.83
2018-05-10T18:47:18.429Z,3.00
2018-05-10T18:49:45.945Z,4.32
2018-05-10T18:52:13.501Z,2.83
2018-05-10T18:54:41.068Z,2.33
2018-05-10T18:57:08.604Z,2.47
2018-05-10T18:59:36.133Z,3.93
2018-05-10T19:02:03.686Z,2.47
2018-05-10T19:04:31.208Z,2.47
2018-05-10T19:07:01.736Z,2.33
2018-05-10T19:09:29.489Z,2.17
2018-05-10T19:11:57.061Z,6.50
2018-05-10T19:14:24.594Z,2.73
2018-05-10T19:16:52.215Z,5.18
2018-05-10T19:19:20.295Z,4.07
2018-05-10T19:21:47.817Z,3.50
2018-05-10T19:24:15.389Z,3.20
2018-05-10T19:26:42.968Z,3.07
2018-05-10T19:29:10.577Z,4.40
2018-05-10T19:31:38.062Z,2.53
2018-05-10T19:34:05.612Z,4.23
2018-05-10T19:36:33.139Z,2.10
2018-05-10T19:39:00.687Z,2.63
2018-05-10T19:41:28.220Z,2.15
2018-05-10T19:43:55.795Z,2.33
2018-05-10T19:46:25.501Z,2.30
2018-05-10T19:48:53.049Z,2.00
2018-05-10T19:51:20.612Z,2.63
2018-05-10T19:53:48.180Z,2.03
2018-05-10T19:56:15.705Z,2.10
2018-05-10T19:58:43.265Z,2.27
2018-05-10T20:01:10.847Z,1.83
2018-05-10T20:03:38.441Z,2.10
2018-05-10T20:06:05.967Z,2.37
2018-05-10T20:08:33.681Z,4.90
2018-05-10T20:11:01.197Z,2.20
2018-05-10T20:13:28.850Z,1.73
2018-05-10T20:15:56.408Z,3.40
2018-05-10T20:18:23.978Z,2.27
2018-05-10T20:20:51.526Z,1.90
2018-05-10T20:23:19.110Z,1.77
2018-05-10T20:25:46.658Z,3.57
2018-05-10T20:28:14.386Z,1.60
2018-05-10T20:30:41.863Z,2.10
2018-05-10T20:33:09.530Z,2.40
2018-05-10T20:35:37.269Z,4.27
2018-05-10T20:38:04.841Z,2.87
2018-05-10T20:40:32.367Z,5.37
2018-05-10T20:42:59.954Z,1.67
2018-05-10T20:45:27.479Z,2.17
2018-05-10T20:47:55.029Z,1.97
2018-05-10T20:50:22.662Z,2.07
2018-05-10T20:52:51.086Z,4.57
2018-05-10T20:55:18.881Z,1.60
2018-05-10T20:57:46.457Z,1.57
2018-05-10T21:00:14.014Z,2.80
2018-05-10T21:02:41.566Z,2.10
2018-05-10T21:05:09.144Z,1.77
2018-05-10T21:07:36.798Z,1.67
2018-05-10T21:10:04.475Z,1.95
2018-05-10T21:12:42.871Z,5.60
2018-05-10T21:15:10.452Z,2.27
2018-05-10T21:17:38.000Z,2.23
2018-05-10T21:20:05.650Z,2.17
2018-05-10T21:22:33.213Z,1.97
2018-05-10T21:25:00.875Z,3.27
2018-05-10T21:27:28.435Z,1.60
2018-05-10T21:29:56.097Z,2.80
2018-05-10T21:32:23.657Z,6.63
2018-05-10T21:34:51.250Z,1.67
2018-05-10T21:37:18.777Z,2.30
2018-05-10T21:39:46.355Z,2.10
2018-05-10T21:42:13.877Z,3.70
2018-05-10T21:44:41.614Z,4.03
2018-05-10T21:47:09.231Z,2.58
2018-05-10T21:49:48.553Z,2.27
2018-05-10T21:52:16.091Z,2.90
2018-05-10T21:54:43.683Z,4.60
2018-05-10T21:57:11.217Z,2.47
2018-05-10T21:59:38.794Z,2.17
2018-05-10T22:02:06.351Z,8.60
2018-05-10T22:04:33.914Z,2.25
2018-05-10T22:07:01.482Z,3.33
2018-05-10T22:09:29.073Z,2.28
2018-05-10T22:11:56.671Z,4.35
2018-05-10T22:14:24.233Z,2.17
2018-05-10T22:16:51.811Z,1.73
2018-05-10T22:19:19.474Z,2.97
2018-05-10T22:21:47.033Z,3.73
2018-05-10T22:24:14.615Z,3.13
2018-05-10T22:26:44.837Z,2.23
2018-05-10T22:29:13.397Z,2.10
2018-05-10T22:31:41.372Z,3.62
2018-05-10T22:34:09.950Z,6.03
2018-05-10T22:36:38.738Z,3.42
2018-05-10T22:39:06.503Z,2.37
2018-05-10T22:41:34.840Z,4.30
2018-05-10T22:44:03.705Z,4.50
2018-05-10T22:46:32.557Z,2.25
2018-05-10T22:49:01.350Z,2.53
2018-05-10T22:51:29.944Z,2.87
2018-05-10T22:53:57.901Z,3.27
2018-05-10T22:56:25.779Z,4.87
2018-05-10T22:58:55.378Z,2.40
2018-05-10T23:01:25.496Z,3.28
2018-05-10T23:03:53.263Z,5.47
2018-05-10T23:06:21.552Z,2.57
2018-05-10T23:08:49.084Z,2.80
2018-05-10T23:11:17.958Z,3.67
2018-05-10T23:13:48.820Z,4.87
2018-05-10T23:16:17.732Z,3.60
2018-05-10T23:18:45.973Z,2.00
2018-05-10T23:21:13.870Z,2.73
2018-05-10T23:23:41.468Z,6.13
2018-05-10T23:26:09.076Z,2.30
2018-05-10T23:28:37.972Z,2.70
2018-05-10T23:31:05.597Z,3.47
2018-05-10T23:33:34.827Z,3.20
2018-05-10T23:36:03.205Z,5.00
2018-05-10T23:38:30.906Z,4.27
2018-05-10T23:40:59.044Z,4.40
2018-05-10T23:43:31.285Z,4.57
2018-05-10T23:45:59.897Z,2.90
2018-05-10T23:48:28.200Z,3.47
2018-05-10T23:50:55.745Z,3.70
2018-05-10T23:53:23.802Z,6.00
2018-05-10T23:55:51.671Z,4.27
2018-05-10T23:58:19.754Z,3.70
